sensor_id;sensor_type;location;lat;lon;timestamp;pressure;altitude;pressure_sealevel;temperature;humidity
70952;BME280;69214;55.880;37.542;2023-05-20T00:00:30;99882.94;;;9.72;57.25
70952;BME280;69214;55.880;37.542;2023-05-20T00:02:56;99873.34;;;9.63;56.95
70952;BME280;69214;55.880;37.542;2023-05-20T00:05:22;99869.56;;;9.64;57.74
70952;BME280;69214;55.880;37.542;2023-05-20T00:07:48;99878.97;;;9.68;57.39
70952;BME280;69214;55.880;37.542;2023-05-20T00:10:14;99871.66;;;9.62;57.59
70952;BME280;69214;55.880;37.542;2023-05-20T00:12:41;99871.03;;;9.66;56.95
70952;BME280;69214;55.880;37.542;2023-05-20T00:15:07;99864.53;;;9.61;56.57
70952;BME280;69214;55.880;37.542;2023-05-20T00:17:33;99866.63;;;9.65;56.97
70952;BME280;69214;55.880;37.542;2023-05-20T00:19:59;99863.09;;;9.58;57.61
70952;BME280;69214;55.880;37.542;2023-05-20T00:22:25;99862.06;;;9.53;58.03
70952;BME280;69214;55.880;37.542;2023-05-20T00:24:51;99859.34;;;9.53;57.54
70952;BME280;69214;55.880;37.542;2023-05-20T00:27:17;99878.16;;;9.61;57.82
70952;BME280;69214;55.880;37.542;2023-05-20T00:29:42;99872.94;;;9.59;57.97
70952;BME280;69214;55.880;37.542;2023-05-20T00:32:08;99877.56;;;9.59;57.69
70952;BME280;69214;55.880;37.542;2023-05-20T00:34:34;99875.25;;;9.56;58.98
70952;BME280;69214;55.880;37.542;2023-05-20T00:37:00;99858.53;;;9.46;57.99
70952;BME280;69214;55.880;37.542;2023-05-20T00:39:26;99868.78;;;9.50;58.96
70952;BME280;69214;55.880;37.542;2023-05-20T00:41:52;99855.81;;;9.39;57.90
70952;BME280;69214;55.880;37.542;2023-05-20T00:44:18;99871.53;;;9.44;59.07
70952;BME280;69214;55.880;37.542;2023-05-20T00:46:45;99862.31;;;9.38;58.84
70952;BME280;69214;55.880;37.542;2023-05-20T00:49:12;99875.50;;;9.41;59.46
70952;BME280;69214;55.880;37.542;2023-05-20T00:51:38;99874.88;;;9.39;58.45
70952;BME280;69214;55.880;37.542;2023-05-20T00:54:05;99864.00;;;9.32;59.14
70952;BME280;69214;55.880;37.542;2023-05-20T00:56:31;99849.38;;;9.27;59.28
70952;BME280;69214;55.880;37.542;2023-05-20T00:58:57;99861.94;;;9.28;59.70
70952;BME280;69214;55.880;37.542;2023-05-20T01:01:23;99853.34;;;9.24;58.86
70952;BME280;69214;55.880;37.542;2023-05-20T01:03:50;99869.06;;;9.29;59.09
70952;BME280;69214;55.880;37.542;2023-05-20T01:06:15;99868.63;;;9.32;59.28
70952;BME280;69214;55.880;37.542;2023-05-20T01:08:41;99864.66;;;9.28;59.36
70952;BME280;69214;55.880;37.542;2023-05-20T01:11:10;99868.00;;;9.30;58.38
70952;BME280;69214;55.880;37.542;2023-05-20T01:13:44;99866.31;;;9.29;58.05
70952;BME280;69214;55.880;37.542;2023-05-20T01:16:13;99875.97;;;9.31;58.37
70952;BME280;69214;55.880;37.542;2023-05-20T01:18:43;99856.28;;;9.29;59.43
70952;BME280;69214;55.880;37.542;2023-05-20T01:21:11;99865.28;;;9.30;59.70
70952;BME280;69214;55.880;37.542;2023-05-20T01:23:39;99864.22;;;9.31;59.30
70952;BME280;69214;55.880;37.542;2023-05-20T01:26:08;99874.47;;;9.35;59.95
70952;BME280;69214;55.880;37.542;2023-05-20T01:28:38;99863.81;;;9.34;59.16
70952;BME280;69214;55.880;37.542;2023-05-20T01:31:18;99868.59;;;9.38;56.68
70952;BME280;69214;55.880;37.542;2023-05-20T01:33:50;99877.00;;;9.37;58.47
70952;BME280;69214;55.880;37.542;2023-05-20T01:36:17;99856.69;;;9.26;59.15
70952;BME280;69214;55.880;37.542;2023-05-20T01:38:45;99871.31;;;9.38;59.20
70952;BME280;69214;55.880;37.542;2023-05-20T01:41:11;99881.16;;;9.39;60.39
70952;BME280;69214;55.880;37.542;2023-05-20T01:43:38;99878.25;;;9.41;60.06
70952;BME280;69214;55.880;37.542;2023-05-20T01:46:07;99886.19;;;9.43;58.51
70952;BME280;69214;55.880;37.542;2023-05-20T01:48:32;99889.13;;;9.41;60.67
70952;BME280;69214;55.880;37.542;2023-05-20T01:50:59;99883.06;;;9.39;59.89
70952;BME280;69214;55.880;37.542;2023-05-20T01:53:25;99865.28;;;9.30;60.64
70952;BME280;69214;55.880;37.542;2023-05-20T01:55:51;99870.72;;;9.36;59.18
70952;BME280;69214;55.880;37.542;2023-05-20T01:58:16;99859.00;;;9.29;59.58
70952;BME280;69214;55.880;37.542;2023-05-20T02:00:42;99859.84;;;9.30;60.33
70952;BME280;69214;55.880;37.542;2023-05-20T02:03:08;99888.50;;;9.39;60.22
70952;BME280;69214;55.880;37.542;2023-05-20T02:05:35;99883.91;;;9.39;60.20
70952;BME280;69214;55.880;37.542;2023-05-20T02:08:04;99890.41;;;9.38;60.00
70952;BME280;69214;55.880;37.542;2023-05-20T02:10:30;99879.94;;;9.35;60.99
70952;BME280;69214;55.880;37.542;2023-05-20T02:12:57;99886.00;;;9.37;60.43
70952;BME280;69214;55.880;37.542;2023-05-20T02:15:24;99874.06;;;9.32;59.42
70952;BME280;69214;55.880;37.542;2023-05-20T02:17:50;99879.09;;;9.35;60.85
70952;BME280;69214;55.880;37.542;2023-05-20T02:20:16;99875.13;;;9.31;60.46
70952;BME280;69214;55.880;37.542;2023-05-20T02:22:42;99874.50;;;9.29;61.14
70952;BME280;69214;55.880;37.542;2023-05-20T02:25:09;99884.31;;;9.36;60.06
70952;BME280;69214;55.880;37.542;2023-05-20T02:27:35;99875.72;;;9.39;59.87
70952;BME280;69214;55.880;37.542;2023-05-20T02:30:01;99876.34;;;9.41;60.54
70952;BME280;69214;55.880;37.542;2023-05-20T02:32:30;99869.22;;;9.40;60.84
70952;BME280;69214;55.880;37.542;2023-05-20T02:34:58;99861.06;;;9.34;61.23
70952;BME280;69214;55.880;37.542;2023-05-20T02:37:24;99865.88;;;9.38;60.79
70952;BME280;69214;55.880;37.542;2023-05-20T02:39:50;99880.50;;;9.51;60.80
70952;BME280;69214;55.880;37.542;2023-05-20T02:42:16;99874.03;;;9.45;61.29
70952;BME280;69214;55.880;37.542;2023-05-20T02:44:42;99879.03;;;9.55;60.34
70952;BME280;69214;55.880;37.542;2023-05-20T02:47:09;99881.53;;;9.56;60.62
70952;BME280;69214;55.880;37.542;2023-05-20T02:49:35;99869.81;;;9.56;61.02
70952;BME280;69214;55.880;37.542;2023-05-20T02:52:02;99862.69;;;9.55;60.12
70952;BME280;69214;55.880;37.542;2023-05-20T02:54:29;99866.63;;;9.65;61.22
70952;BME280;69214;55.880;37.542;2023-05-20T02:56:55;99853.44;;;9.62;60.73
70952;BME280;69214;55.880;37.542;2023-05-20T02:59:20;99869.94;;;9.74;60.16
70952;BME280;69214;55.880;37.542;2023-05-20T03:01:46;99856.94;;;9.76;60.62
70952;BME280;69214;55.880;37.542;2023-05-20T03:04:13;99862.13;;;9.84;60.64
70952;BME280;69214;55.880;37.542;2023-05-20T03:06:39;99887.41;;;10.04;60.65
70952;BME280;69214;55.880;37.542;2023-05-20T03:09:09;99883.19;;;10.09;60.16
70952;BME280;69214;55.880;37.542;2023-05-20T03:11:35;99884.22;;;10.14;60.90
70952;BME280;69214;55.880;37.542;2023-05-20T03:14:02;99885.03;;;10.15;60.96
70952;BME280;69214;55.880;37.542;2023-05-20T03:16:29;99887.56;;;10.16;59.89
70952;BME280;69214;55.880;37.542;2023-05-20T03:18:56;99883.19;;;10.09;59.56
70952;BME280;69214;55.880;37.542;2023-05-20T03:21:22;99891.34;;;10.15;59.97
70952;BME280;69214;55.880;37.542;2023-05-20T03:23:48;99888.22;;;10.12;60.41
70952;BME280;69214;55.880;37.542;2023-05-20T03:26:14;99888.88;;;10.07;60.41
70952;BME280;69214;55.880;37.542;2023-05-20T03:28:40;99869.81;;;10.00;60.23
70952;BME280;69214;55.880;37.542;2023-05-20T03:31:07;99892.66;;;10.06;61.16
70952;BME280;69214;55.880;37.542;2023-05-20T03:33:34;99879.63;;;10.08;61.64
70952;BME280;69214;55.880;37.542;2023-05-20T03:36:00;99883.38;;;10.14;60.69
70952;BME280;69214;55.880;37.542;2023-05-20T03:38:26;99898.41;;;10.29;60.59
70952;BME280;69214;55.880;37.542;2023-05-20T03:40:53;99897.97;;;10.32;60.92
70952;BME280;69214;55.880;37.542;2023-05-20T03:43:18;99865.56;;;10.11;60.43
70952;BME280;69214;55.880;37.542;2023-05-20T03:45:45;99894.81;;;10.35;60.20
70952;BME280;69214;55.880;37.542;2023-05-20T03:48:12;99882.22;;;10.34;60.58
70952;BME280;69214;55.880;37.542;2023-05-20T03:50:38;99879.41;;;10.41;61.04
70952;BME280;69214;55.880;37.542;2023-05-20T03:53:04;99849.31;;;10.29;61.32
70952;BME280;69214;55.880;37.542;2023-05-20T03:55:37;99867.19;;;10.50;60.34
70952;BME280;69214;55.880;37.542;2023-05-20T03:58:04;99880.13;;;10.61;61.07
70952;BME280;69214;55.880;37.542;2023-05-20T04:00:32;99875.09;;;10.58;60.71
70952;BME280;69214;55.880;37.542;2023-05-20T04:02:58;99889.47;;;10.72;60.22
70952;BME280;69214;55.880;37.542;2023-05-20T04:05:25;99875.38;;;10.75;60.18
70952;BME280;69214;55.880;37.542;2023-05-20T04:07:53;99882.63;;;10.88;60.61
70952;BME280;69214;55.880;37.542;2023-05-20T04:10:22;99887.19;;;10.94;59.87
70952;BME280;69214;55.880;37.542;2023-05-20T04:12:49;99873.53;;;10.94;60.05
70952;BME280;69214;55.880;37.542;2023-05-20T04:15:15;99879.25;;;11.11;60.22
70952;BME280;69214;55.880;37.542;2023-05-20T04:17:52;99879.97;;;11.24;59.95
70952;BME280;69214;55.880;37.542;2023-05-20T04:20:18;99870.94;;;11.42;58.95
70952;BME280;69214;55.880;37.542;2023-05-20T04:22:45;99886.34;;;11.73;58.68
70952;BME280;69214;55.880;37.542;2023-05-20T04:25:11;99863.38;;;11.81;58.56
70952;BME280;69214;55.880;37.542;2023-05-20T04:27:37;99884.44;;;12.10;57.86
70952;BME280;69214;55.880;37.542;2023-05-20T04:30:05;99890.94;;;12.27;57.10
70952;BME280;69214;55.880;37.542;2023-05-20T04:32:33;99881.41;;;12.30;57.37
70952;BME280;69214;55.880;37.542;2023-05-20T04:35:03;99852.44;;;12.11;57.39
70952;BME280;69214;55.880;37.542;2023-05-20T04:37:33;99875.13;;;12.29;57.40
70952;BME280;69214;55.880;37.542;2023-05-20T04:40:03;99857.81;;;12.17;57.59
70952;BME280;69214;55.880;37.542;2023-05-20T04:42:32;99882.38;;;12.36;57.47
70952;BME280;69214;55.880;37.542;2023-05-20T04:45:02;99860.97;;;12.32;57.57
70952;BME280;69214;55.880;37.542;2023-05-20T04:47:33;99855.28;;;12.46;57.30
70952;BME280;69214;55.880;37.542;2023-05-20T04:50:08;99867.22;;;12.63;56.08
70952;BME280;69214;55.880;37.542;2023-05-20T04:52:40;99871.31;;;12.95;56.18
70952;BME280;69214;55.880;37.542;2023-05-20T04:55:08;99882.31;;;13.19;55.69
70952;BME280;69214;55.880;37.542;2023-05-20T04:57:39;99884.56;;;13.34;55.12
70952;BME280;69214;55.880;37.542;2023-05-20T05:00:09;99876.69;;;13.49;54.83
70952;BME280;69214;55.880;37.542;2023-05-20T05:02:37;99888.09;;;13.69;54.82
70952;BME280;69214;55.880;37.542;2023-05-20T05:07:46;99884.31;;;13.99;54.14
70952;BME280;69214;55.880;37.542;2023-05-20T05:10:12;99881.47;;;13.93;54.20
70952;BME280;69214;55.880;37.542;2023-05-20T05:12:39;99886.25;;;13.98;54.29
70952;BME280;69214;55.880;37.542;2023-05-20T05:15:05;99878.34;;;14.02;53.77
70952;BME280;69214;55.880;37.542;2023-05-20T05:17:32;99882.91;;;13.96;54.29
70952;BME280;69214;55.880;37.542;2023-05-20T05:19:58;99871.78;;;14.03;54.08
70952;BME280;69214;55.880;37.542;2023-05-20T05:22:29;99880.31;;;14.18;54.00
70952;BME280;69214;55.880;37.542;2023-05-20T05:24:55;99878.25;;;14.25;53.32
70952;BME280;69214;55.880;37.542;2023-05-20T05:27:22;99871.50;;;14.16;53.48
70952;BME280;69214;55.880;37.542;2023-05-20T05:29:48;99877.31;;;14.19;53.52
70952;BME280;69214;55.880;37.542;2023-05-20T05:32:14;99863.03;;;14.17;53.02
70952;BME280;69214;55.880;37.542;2023-05-20T05:34:40;99871.69;;;14.26;53.57
70952;BME280;69214;55.880;37.542;2023-05-20T05:37:07;99873.19;;;14.45;53.05
70952;BME280;69214;55.880;37.542;2023-05-20T05:39:33;99860.22;;;14.57;52.87
70952;BME280;69214;55.880;37.542;2023-05-20T05:42:02;99860.06;;;14.81;52.15
70952;BME280;69214;55.880;37.542;2023-05-20T05:44:28;99865.97;;;15.06;52.09
70952;BME280;69214;55.880;37.542;2023-05-20T05:46:55;99864.44;;;15.32;51.02
70952;BME280;69214;55.880;37.542;2023-05-20T05:49:21;99870.16;;;15.69;50.09
70952;BME280;69214;55.880;37.542;2023-05-20T05:51:47;99871.88;;;15.97;49.57
70952;BME280;69214;55.880;37.542;2023-05-20T05:54:13;99856.31;;;16.08;49.63
70952;BME280;69214;55.880;37.542;2023-05-20T05:56:39;99869.69;;;16.48;49.07
70952;BME280;69214;55.880;37.542;2023-05-20T05:59:05;99859.34;;;17.29;47.46
70952;BME280;69214;55.880;37.542;2023-05-20T06:01:30;99869.25;;;18.35;45.66
70952;BME280;69214;55.880;37.542;2023-05-20T06:03:56;99877.06;;;19.19;43.80
70952;BME280;69214;55.880;37.542;2023-05-20T06:06:22;99864.50;;;19.78;43.14
70952;BME280;69214;55.880;37.542;2023-05-20T06:08:48;99860.28;;;19.95;42.13
70952;BME280;69214;55.880;37.542;2023-05-20T06:11:14;99866.72;;;20.35;41.70
70952;BME280;69214;55.880;37.542;2023-05-20T06:13:40;99877.38;;;20.96;41.02
70952;BME280;69214;55.880;37.542;2023-05-20T06:16:06;99865.22;;;22.03;38.84
70952;BME280;69214;55.880;37.542;2023-05-20T06:18:35;99862.31;;;22.69;37.47
70952;BME280;69214;55.880;37.542;2023-05-20T06:21:03;99851.03;;;22.98;37.65
70952;BME280;69214;55.880;37.542;2023-05-20T06:23:29;99861.94;;;23.27;36.20
70952;BME280;69214;55.880;37.542;2023-05-20T06:25:59;99861.75;;;23.37;36.46
70952;BME280;69214;55.880;37.542;2023-05-20T06:28:26;99867.06;;;23.66;36.59
70952;BME280;69214;55.880;37.542;2023-05-20T06:30:55;99864.91;;;24.18;37.52
70952;BME280;69214;55.880;37.542;2023-05-20T06:33:27;99864.69;;;24.28;36.95
70952;BME280;69214;55.880;37.542;2023-05-20T06:35:58;99837.84;;;24.18;34.63
70952;BME280;69214;55.880;37.542;2023-05-20T06:38:26;99876.50;;;24.61;34.51
70952;BME280;69214;55.880;37.542;2023-05-20T06:40:52;99865.19;;;25.02;33.53
70952;BME280;69214;55.880;37.542;2023-05-20T06:43:18;99864.13;;;25.65;32.51
70952;BME280;69214;55.880;37.542;2023-05-20T06:45:52;99861.69;;;26.38;32.45
70952;BME280;69214;55.880;37.542;2023-05-20T06:48:34;99867.97;;;26.69;31.94
70952;BME280;69214;55.880;37.542;2023-05-20T06:51:00;99874.88;;;26.46;31.06
70952;BME280;69214;55.880;37.542;2023-05-20T06:53:29;99836.28;;;25.60;31.40
70952;BME280;69214;55.880;37.542;2023-05-20T06:55:55;99862.69;;;25.76;31.15
70952;BME280;69214;55.880;37.542;2023-05-20T06:58:21;99863.91;;;25.93;30.69
70952;BME280;69214;55.880;37.542;2023-05-20T07:00:46;99872.75;;;26.86;29.98
70952;BME280;69214;55.880;37.542;2023-05-20T07:03:14;99854.38;;;27.96;28.81
70952;BME280;69214;55.880;37.542;2023-05-20T07:05:40;99848.34;;;28.86;27.32
70952;BME280;69214;55.880;37.542;2023-05-20T07:08:09;99856.28;;;30.07;26.01
70952;BME280;69214;55.880;37.542;2023-05-20T07:10:36;99859.72;;;31.05;25.17
70952;BME280;69214;55.880;37.542;2023-05-20T07:13:02;99850.53;;;32.31;24.37
70952;BME280;69214;55.880;37.542;2023-05-20T07:15:28;99794.06;;;32.69;22.55
70952;BME280;69214;55.880;37.542;2023-05-20T07:17:54;99854.13;;;31.80;22.43
70952;BME280;69214;55.880;37.542;2023-05-20T07:20:20;99774.00;;;29.28;24.22
70952;BME280;69214;55.880;37.542;2023-05-20T07:22:46;99849.34;;;28.81;24.98
70952;BME280;69214;55.880;37.542;2023-05-20T07:25:29;99873.25;;;28.46;25.23
70952;BME280;69214;55.880;37.542;2023-05-20T07:27:55;99850.06;;;27.69;25.66
70952;BME280;69214;55.880;37.542;2023-05-20T07:30:21;99868.91;;;27.42;26.05
70952;BME280;69214;55.880;37.542;2023-05-20T07:32:58;99848.00;;;27.31;25.71
70952;BME280;69214;55.880;37.542;2023-05-20T07:35:24;99846.22;;;27.18;26.24
70952;BME280;69214;55.880;37.542;2023-05-20T07:37:49;99874.25;;;27.09;26.57
70952;BME280;69214;55.880;37.542;2023-05-20T07:40:15;99836.19;;;26.65;26.79
70952;BME280;69214;55.880;37.542;2023-05-20T07:42:41;99870.91;;;25.73;27.26
70952;BME280;69214;55.880;37.542;2023-05-20T07:45:08;99865.69;;;24.46;28.68
70952;BME280;69214;55.880;37.542;2023-05-20T07:47:35;99873.38;;;23.72;29.64
70952;BME280;69214;55.880;37.542;2023-05-20T07:50:01;99862.44;;;23.75;30.14
70952;BME280;69214;55.880;37.542;2023-05-20T07:52:29;99859.44;;;23.72;30.08
70952;BME280;69214;55.880;37.542;2023-05-20T07:54:55;99858.00;;;23.74;30.25
70952;BME280;69214;55.880;37.542;2023-05-20T07:57:21;99850.97;;;23.77;30.23
70952;BME280;69214;55.880;37.542;2023-05-20T07:59:47;99860.50;;;22.97;31.33
70952;BME280;69214;55.880;37.542;2023-05-20T08:02:14;99856.41;;;23.08;31.41
70952;BME280;69214;55.880;37.542;2023-05-20T08:04:40;99848.31;;;22.93;31.62
70952;BME280;69214;55.880;37.542;2023-05-20T08:07:06;99852.84;;;22.33;32.04
70952;BME280;69214;55.880;37.542;2023-05-20T08:09:45;99854.06;;;22.64;31.81
70952;BME280;69214;55.880;37.542;2023-05-20T08:12:11;99864.97;;;22.79;31.79
70952;BME280;69214;55.880;37.542;2023-05-20T08:14:39;99859.16;;;22.38;32.22
70952;BME280;69214;55.880;37.542;2023-05-20T08:17:05;99854.13;;;21.50;33.58
70952;BME280;69214;55.880;37.542;2023-05-20T08:19:31;99868.13;;;20.77;34.66
70952;BME280;69214;55.880;37.542;2023-05-20T08:21:57;99856.19;;;20.42;35.75
70952;BME280;69214;55.880;37.542;2023-05-20T08:24:23;99856.78;;;20.29;35.75
70952;BME280;69214;55.880;37.542;2023-05-20T08:26:49;99858.47;;;20.25;35.76
70952;BME280;69214;55.880;37.542;2023-05-20T08:29:16;99855.91;;;20.33;35.72
70952;BME280;69214;55.880;37.542;2023-05-20T08:31:42;99857.47;;;20.05;35.85
70952;BME280;69214;55.880;37.542;2023-05-20T08:34:08;99853.75;;;19.61;36.69
70952;BME280;69214;55.880;37.542;2023-05-20T08:36:35;99865.41;;;19.48;36.69
70952;BME280;69214;55.880;37.542;2023-05-20T08:39:02;99855.72;;;19.35;36.57
70952;BME280;69214;55.880;37.542;2023-05-20T08:41:28;99851.34;;;19.19;37.54
70952;BME280;69214;55.880;37.542;2023-05-20T08:43:55;99852.44;;;19.28;37.14
70952;BME280;69214;55.880;37.542;2023-05-20T08:46:22;99847.22;;;18.81;38.20
70952;BME280;69214;55.880;37.542;2023-05-20T08:48:48;99856.50;;;18.29;39.02
70952;BME280;69214;55.880;37.542;2023-05-20T08:51:15;99872.97;;;17.93;39.71
70952;BME280;69214;55.880;37.542;2023-05-20T08:53:42;99863.22;;;17.70;40.31
70952;BME280;69214;55.880;37.542;2023-05-20T08:56:08;99853.56;;;17.31;40.60
70952;BME280;69214;55.880;37.542;2023-05-20T08:58:36;99847.94;;;17.10;40.75
70952;BME280;69214;55.880;37.542;2023-05-20T09:01:02;99868.16;;;17.26;40.90
70952;BME280;69214;55.880;37.542;2023-05-20T09:03:28;99834.16;;;17.63;40.57
70952;BME280;69214;55.880;37.542;2023-05-20T09:06:03;99852.88;;;18.13;39.77
70952;BME280;69214;55.880;37.542;2023-05-20T09:08:29;99855.63;;;18.08;40.05
70952;BME280;69214;55.880;37.542;2023-05-20T09:10:55;99861.13;;;17.98;39.77
70952;BME280;69214;55.880;37.542;2023-05-20T09:13:22;99860.28;;;17.92;40.03
70952;BME280;69214;55.880;37.542;2023-05-20T09:15:48;99865.81;;;17.97;39.84
70952;BME280;69214;55.880;37.542;2023-05-20T09:18:14;99856.19;;;18.15;39.50
70952;BME280;69214;55.880;37.542;2023-05-20T09:20:41;99846.81;;;18.21;39.58
70952;BME280;69214;55.880;37.542;2023-05-20T09:23:08;99860.63;;;18.21;39.25
70952;BME280;69214;55.880;37.542;2023-05-20T09:25:36;99861.13;;;17.98;39.77
70952;BME280;69214;55.880;37.542;2023-05-20T09:28:06;99858.59;;;17.86;40.14
70952;BME280;69214;55.880;37.542;2023-05-20T09:30:33;99884.50;;;17.80;39.67
70952;BME280;69214;55.880;37.542;2023-05-20T09:33:02;99844.63;;;17.56;40.22
70952;BME280;69214;55.880;37.542;2023-05-20T09:35:28;99851.03;;;17.19;40.82
70952;BME280;69214;55.880;37.542;2023-05-20T09:37:56;99862.47;;;17.01;41.41
70952;BME280;69214;55.880;37.542;2023-05-20T09:40:29;99863.41;;;16.79;41.24
70952;BME280;69214;55.880;37.542;2023-05-20T09:43:02;99854.31;;;16.79;41.93
70952;BME280;69214;55.880;37.542;2023-05-20T09:45:29;99863.19;;;16.86;41.26
70952;BME280;69214;55.880;37.542;2023-05-20T09:47:56;99832.81;;;16.81;41.31
70952;BME280;69214;55.880;37.542;2023-05-20T09:50:23;99860.66;;;17.16;40.97
70952;BME280;69214;55.880;37.542;2023-05-20T09:52:51;99862.19;;;17.39;39.97
70952;BME280;69214;55.880;37.542;2023-05-20T09:55:21;99884.53;;;17.38;39.93
70952;BME280;69214;55.880;37.542;2023-05-20T09:57:47;99872.78;;;17.15;40.38
70952;BME280;69214;55.880;37.542;2023-05-20T10:00:15;99874.63;;;17.05;40.84
70952;BME280;69214;55.880;37.542;2023-05-20T10:02:44;99863.22;;;16.91;41.51
70952;BME280;69214;55.880;37.542;2023-05-20T10:05:16;99876.78;;;16.98;41.66
70952;BME280;69214;55.880;37.542;2023-05-20T10:13:39;99875.31;;;16.58;41.56
70952;BME280;69214;55.880;37.542;2023-05-20T10:21:28;99873.38;;;15.83;42.70
70952;BME280;69214;55.880;37.542;2023-05-20T10:24:05;99879.84;;;15.94;43.27
70952;BME280;69214;55.880;37.542;2023-05-20T10:26:36;99870.75;;;15.93;42.97
70952;BME280;69214;55.880;37.542;2023-05-20T10:29:13;99883.47;;;15.99;42.19
70952;BME280;69214;55.880;37.542;2023-05-20T10:31:50;99859.78;;;15.98;42.33
70952;BME280;69214;55.880;37.542;2023-05-20T10:34:18;99888.38;;;16.19;42.56
70952;BME280;69214;55.880;37.542;2023-05-20T10:39:31;99890.84;;;16.42;41.48
70952;BME280;69214;55.880;37.542;2023-05-20T10:42:07;99883.31;;;16.60;41.78
70952;BME280;69214;55.880;37.542;2023-05-20T10:44:43;99889.25;;;16.73;41.63
70952;BME280;69214;55.880;37.542;2023-05-20T10:47:09;99892.88;;;16.52;41.86
70952;BME280;69214;55.880;37.542;2023-05-20T10:49:39;99887.41;;;16.30;42.19
70952;BME280;69214;55.880;37.542;2023-05-20T10:52:09;99866.63;;;16.17;42.03
70952;BME280;69214;55.880;37.542;2023-05-20T10:54:36;99860.47;;;16.10;41.92
70952;BME280;69214;55.880;37.542;2023-05-20T10:57:06;99880.97;;;16.19;42.50
70952;BME280;69214;55.880;37.542;2023-05-20T10:59:35;99889.97;;;16.37;42.37
70952;BME280;69214;55.880;37.542;2023-05-20T11:02:02;99891.78;;;16.53;42.00
70952;BME280;69214;55.880;37.542;2023-05-20T11:04:31;99894.06;;;16.61;41.51
70952;BME280;69214;55.880;37.542;2023-05-20T11:06:57;99883.38;;;16.38;41.66
70952;BME280;69214;55.880;37.542;2023-05-20T11:09:23;99896.66;;;15.97;42.37
70952;BME280;69214;55.880;37.542;2023-05-20T11:11:52;99885.75;;;15.42;43.74
70952;BME280;69214;55.880;37.542;2023-05-20T11:14:18;99904.94;;;15.03;43.70
70952;BME280;69214;55.880;37.542;2023-05-20T11:16:45;99907.75;;;14.75;43.61
70952;BME280;69214;55.880;37.542;2023-05-20T11:19:15;99904.22;;;14.46;44.48
70952;BME280;69214;55.880;37.542;2023-05-20T11:21:42;99904.47;;;14.33;44.81
70952;BME280;69214;55.880;37.542;2023-05-20T11:24:09;99904.72;;;14.31;44.87
70952;BME280;69214;55.880;37.542;2023-05-20T11:26:35;99897.31;;;14.32;45.22
70952;BME280;69214;55.880;37.542;2023-05-20T11:29:02;99896.09;;;14.39;45.15
70952;BME280;69214;55.880;37.542;2023-05-20T11:31:28;99902.91;;;14.65;44.86
70952;BME280;69214;55.880;37.542;2023-05-20T11:33:54;99900.28;;;15.04;43.47
70952;BME280;69214;55.880;37.542;2023-05-20T11:36:21;99881.69;;;15.28;43.07
70952;BME280;69214;55.880;37.542;2023-05-20T11:38:47;99892.34;;;15.63;42.29
70952;BME280;69214;55.880;37.542;2023-05-20T11:41:13;99896.03;;;15.90;41.20
70952;BME280;69214;55.880;37.542;2023-05-20T11:43:39;99887.44;;;16.08;40.75
70952;BME280;69214;55.880;37.542;2023-05-20T11:46:08;99889.16;;;16.14;40.59
70952;BME280;69214;55.880;37.542;2023-05-20T11:48:34;99892.44;;;16.11;40.94
70952;BME280;69214;55.880;37.542;2023-05-20T11:51:01;99879.88;;;15.99;41.11
70952;BME280;69214;55.880;37.542;2023-05-20T11:53:27;99881.75;;;15.93;41.71
70952;BME280;69214;55.880;37.542;2023-05-20T11:55:56;99889.19;;;15.93;41.57
70952;BME280;69214;55.880;37.542;2023-05-20T11:58:24;99887.97;;;15.83;41.22
70952;BME280;69214;55.880;37.542;2023-05-20T12:00:50;99887.69;;;15.85;41.15
70952;BME280;69214;55.880;37.542;2023-05-20T12:03:16;99884.94;;;15.85;40.95
70952;BME280;69214;55.880;37.542;2023-05-20T12:05:42;99867.16;;;15.71;41.33
70952;BME280;69214;55.880;37.542;2023-05-20T12:08:08;99889.38;;;15.86;41.58
70952;BME280;69214;55.880;37.542;2023-05-20T12:10:35;99883.09;;;15.91;41.36
70952;BME280;69214;55.880;37.542;2023-05-20T12:13:03;99876.63;;;15.80;42.00
70952;BME280;69214;55.880;37.542;2023-05-20T12:15:35;99883.34;;;15.89;42.25
70952;BME280;69214;55.880;37.542;2023-05-20T12:18:01;99890.38;;;16.02;42.32
70952;BME280;69214;55.880;37.542;2023-05-20T12:20:28;99889.22;;;16.19;41.34
70952;BME280;69214;55.880;37.542;2023-05-20T12:22:55;99887.34;;;16.25;41.54
70952;BME280;69214;55.880;37.542;2023-05-20T12:25:22;99887.28;;;16.20;41.38
70952;BME280;69214;55.880;37.542;2023-05-20T12:27:49;99885.56;;;16.14;41.57
70952;BME280;69214;55.880;37.542;2023-05-20T12:30:18;99882.19;;;16.07;41.68
70952;BME280;69214;55.880;37.542;2023-05-20T12:32:45;99865.16;;;16.10;41.98
70952;BME280;69214;55.880;37.542;2023-05-20T12:35:12;99880.56;;;16.33;41.66
70952;BME280;69214;55.880;37.542;2023-05-20T12:37:39;99879.66;;;16.54;41.52
70952;BME280;69214;55.880;37.542;2023-05-20T12:40:10;99886.59;;;16.83;40.73
70952;BME280;69214;55.880;37.542;2023-05-20T12:42:38;99881.47;;;16.97;40.45
70952;BME280;69214;55.880;37.542;2023-05-20T12:45:06;99876.22;;;16.96;40.81
70952;BME280;69214;55.880;37.542;2023-05-20T12:47:33;99877.88;;;16.97;40.77
70952;BME280;69214;55.880;37.542;2023-05-20T12:50:00;99885.09;;;17.03;40.59
70952;BME280;69214;55.880;37.542;2023-05-20T12:52:26;99880.44;;;17.08;40.95
70952;BME280;69214;55.880;37.542;2023-05-20T12:54:53;99870.78;;;17.06;41.09
70952;BME280;69214;55.880;37.542;2023-05-20T12:57:21;99873.63;;;17.16;41.05
70952;BME280;69214;55.880;37.542;2023-05-20T12:59:47;99870.13;;;17.31;40.93
70952;BME280;69214;55.880;37.542;2023-05-20T13:02:13;99863.94;;;17.56;40.55
70952;BME280;69214;55.880;37.542;2023-05-20T13:04:39;99879.53;;;17.77;39.61
70952;BME280;69214;55.880;37.542;2023-05-20T13:07:05;99873.91;;;17.62;39.91
70952;BME280;69214;55.880;37.542;2023-05-20T13:09:31;99871.03;;;17.41;40.45